Laguepe — 9HAI9 — position and weather

sailwx.info

Track history (hours):
 
Tides and Currents Weather Stations Pressure Air Temp Water Temp Dewpoint Dewpoint Depression Visibility Wind Speed Wind Dir Waves Ship Positions

Laguepe

Last reported at 2017-Feb-18 04:34 UTC. Time now 2017-Feb-22 22:07 UTC.
Position N 43°23' E 004°48'.

Length 81 m; draft 2.8 m.

Type: Cargo ship. MMSI: 256681000.

Date/timePositionNaut miles runAvg speedWind from/ knotsBaromVisibWave heightAir tempDewpointWater temp
2017-Feb-18 04:34N 43°23' E 004°48'0 0.0
2017-Feb-18 02:34N 43°23' E 004°48'0 0.0
2017-Feb-18 00:33N 43°23' E 004°48'0 0.0
2017-Feb-17 22:33N 43°23' E 004°48'0 0.0
2017-Feb-17 20:34N 43°23' E 004°48'0 0.0
2017-Feb-17 18:33N 43°23' E 004°48'0 0.1
2017-Feb-17 16:34N 43°23' E 004°49'5 4.3
2017-Feb-17 15:19N 43°23' E 004°56'5 6.8
2017-Feb-17 14:34N 43°19' E 004°60'8 6.2
2017-Feb-17 13:13N 43°11' E 005°04'5 6.9
2017-Feb-17 12:33N 43°07' E 005°07'  
2017-Feb-11 14:33N 43°22' E 004°58'7 0.6
2017-Feb-11 03:03N 43°23' E 004°48'0 0.0
2017-Feb-11 01:04N 43°23' E 004°48'0 0.0
2017-Feb-10 23:04N 43°23' E 004°48'0 0.0
2017-Feb-10 22:21N 43°23' E 004°48'0 0.0
2017-Feb-10 21:04N 43°23' E 004°48'14 7.2
2017-Feb-10 19:05N 43°36' E 004°39'  
Track history (hours):
 
Tides and Currents Weather Stations Pressure Air Temp Water Temp Dewpoint Dewpoint Depression Visibility Wind Speed Wind Dir Waves Ship Positions

Laguepe

Last reported at 2017-Feb-18 04:34 UTC. Time now 2017-Feb-22 22:07 UTC.
Position N 43°23' E 004°48'.

Length 81 m; draft 2.8 m.

Type: Cargo ship. MMSI: 256681000.

Date/timePositionNaut miles runAvg speedWind from/ knotsBaromVisibWave heightAir tempDewpointWater temp
2017-Feb-18 04:34N 43°23' E 004°48'0 0.0
2017-Feb-18 02:34N 43°23' E 004°48'0 0.0
2017-Feb-18 00:33N 43°23' E 004°48'0 0.0
2017-Feb-17 22:33N 43°23' E 004°48'0 0.0
2017-Feb-17 20:34N 43°23' E 004°48'0 0.0
2017-Feb-17 18:33N 43°23' E 004°48'0 0.1
2017-Feb-17 16:34N 43°23' E 004°49'5 4.3
2017-Feb-17 15:19N 43°23' E 004°56'5 6.8
2017-Feb-17 14:34N 43°19' E 004°60'8 6.2
2017-Feb-17 13:13N 43°11' E 005°04'5 6.9
2017-Feb-17 12:33N 43°07' E 005°07'  
2017-Feb-11 14:33N 43°22' E 004°58'7 0.6
2017-Feb-11 03:03N 43°23' E 004°48'0 0.0
2017-Feb-11 01:04N 43°23' E 004°48'0 0.0
2017-Feb-10 23:04N 43°23' E 004°48'0 0.0
2017-Feb-10 22:21N 43°23' E 004°48'0 0.0
2017-Feb-10 21:04N 43°23' E 004°48'14 7.2
2017-Feb-10 19:05N 43°36' E 004°39'  

Dump ship's entire track history